sensor_id;sensor_type;location;lat;lon;timestamp;P1;durP1;ratioP1;P2;durP2;ratioP2
48627;SDS011;34424;52.234;6.500;2022-12-10T00:03:38;71.18;;;30.30;;
48627;SDS011;34424;52.234;6.500;2022-12-10T00:08:41;71.90;;;29.10;;
48627;SDS011;34424;52.234;6.500;2022-12-10T00:13:44;64.17;;;28.70;;
48627;SDS011;34424;52.234;6.500;2022-12-10T00:18:49;66.25;;;27.67;;
48627;SDS011;34424;52.234;6.500;2022-12-10T00:23:52;62.75;;;26.95;;
48627;SDS011;34424;52.234;6.500;2022-12-10T00:28:55;70.63;;;29.60;;
48627;SDS011;34424;52.234;6.500;2022-12-10T00:34:00;66.65;;;27.75;;
48627;SDS011;34424;52.234;6.500;2022-12-10T00:39:03;81.82;;;30.95;;
48627;SDS011;34424;52.234;6.500;2022-12-10T00:44:06;80.25;;;33.25;;
48627;SDS011;34424;52.234;6.500;2022-12-10T00:49:10;76.10;;;33.10;;
48627;SDS011;34424;52.234;6.500;2022-12-10T00:54:12;73.55;;;30.75;;
48627;SDS011;34424;52.234;6.500;2022-12-10T00:59:15;73.18;;;30.25;;
48627;SDS011;34424;52.234;6.500;2022-12-10T01:04:19;76.05;;;32.17;;
48627;SDS011;34424;52.234;6.500;2022-12-10T01:09:22;73.90;;;30.92;;
48627;SDS011;34424;52.234;6.500;2022-12-10T01:14:25;79.00;;;33.28;;
48627;SDS011;34424;52.234;6.500;2022-12-10T01:19:30;77.75;;;29.83;;
48627;SDS011;34424;52.234;6.500;2022-12-10T01:24:36;74.57;;;33.47;;
48627;SDS011;34424;52.234;6.500;2022-12-10T01:29:38;67.53;;;29.47;;
48627;SDS011;34424;52.234;6.500;2022-12-10T01:34:43;79.05;;;32.78;;
48627;SDS011;34424;52.234;6.500;2022-12-10T01:39:45;90.88;;;35.20;;
48627;SDS011;34424;52.234;6.500;2022-12-10T01:45:02;85.63;;;33.20;;
48627;SDS011;34424;52.234;6.500;2022-12-10T01:50:07;95.82;;;36.10;;
48627;SDS011;34424;52.234;6.500;2022-12-10T02:00:28;98.72;;;37.33;;
48627;SDS011;34424;52.234;6.500;2022-12-10T02:05:32;97.97;;;36.00;;
48627;SDS011;34424;52.234;6.500;2022-12-10T02:10:42;90.88;;;37.42;;
48627;SDS011;34424;52.234;6.500;2022-12-10T02:15:47;90.55;;;39.83;;
48627;SDS011;34424;52.234;6.500;2022-12-10T02:20:53;100.82;;;40.33;;
48627;SDS011;34424;52.234;6.500;2022-12-10T02:25:59;88.10;;;36.45;;
48627;SDS011;34424;52.234;6.500;2022-12-10T02:31:05;84.15;;;36.92;;
48627;SDS011;34424;52.234;6.500;2022-12-10T02:36:09;96.15;;;38.85;;
48627;SDS011;34424;52.234;6.500;2022-12-10T02:41:13;104.68;;;38.58;;
48627;SDS011;34424;52.234;6.500;2022-12-10T02:46:18;85.22;;;35.00;;
48627;SDS011;34424;52.234;6.500;2022-12-10T02:51:21;94.70;;;38.13;;
48627;SDS011;34424;52.234;6.500;2022-12-10T02:56:26;85.60;;;33.70;;
48627;SDS011;34424;52.234;6.500;2022-12-10T03:01:34;100.28;;;39.90;;
48627;SDS011;34424;52.234;6.500;2022-12-10T03:06:39;86.55;;;31.85;;
48627;SDS011;34424;52.234;6.500;2022-12-10T03:11:43;93.07;;;36.45;;
48627;SDS011;34424;52.234;6.500;2022-12-10T03:16:48;80.18;;;35.67;;
48627;SDS011;34424;52.234;6.500;2022-12-10T03:21:52;80.38;;;31.67;;
48627;SDS011;34424;52.234;6.500;2022-12-10T03:26:55;102.80;;;34.53;;
48627;SDS011;34424;52.234;6.500;2022-12-10T03:32:00;100.13;;;36.20;;
48627;SDS011;34424;52.234;6.500;2022-12-10T03:37:03;89.47;;;34.70;;
48627;SDS011;34424;52.234;6.500;2022-12-10T03:42:06;90.18;;;35.25;;
48627;SDS011;34424;52.234;6.500;2022-12-10T03:47:12;116.82;;;40.78;;
48627;SDS011;34424;52.234;6.500;2022-12-10T03:52:15;95.75;;;37.45;;
48627;SDS011;34424;52.234;6.500;2022-12-10T03:57:17;107.40;;;37.30;;
48627;SDS011;34424;52.234;6.500;2022-12-10T04:02:21;109.05;;;39.67;;
48627;SDS011;34424;52.234;6.500;2022-12-10T04:07:24;127.03;;;44.63;;
48627;SDS011;34424;52.234;6.500;2022-12-10T04:12:26;118.15;;;44.20;;
48627;SDS011;34424;52.234;6.500;2022-12-10T04:17:32;119.10;;;43.28;;
48627;SDS011;34424;52.234;6.500;2022-12-10T04:22:35;120.15;;;46.17;;
48627;SDS011;34424;52.234;6.500;2022-12-10T04:27:54;113.40;;;41.13;;
48627;SDS011;34424;52.234;6.500;2022-12-10T04:32:58;132.43;;;41.60;;
48627;SDS011;34424;52.234;6.500;2022-12-10T04:38:01;104.78;;;41.50;;
48627;SDS011;34424;52.234;6.500;2022-12-10T04:43:04;107.27;;;37.33;;
48627;SDS011;34424;52.234;6.500;2022-12-10T04:48:07;112.93;;;42.35;;
48627;SDS011;34424;52.234;6.500;2022-12-10T04:53:10;123.80;;;42.30;;
48627;SDS011;34424;52.234;6.500;2022-12-10T04:58:13;129.00;;;43.70;;
48627;SDS011;34424;52.234;6.500;2022-12-10T05:03:16;127.03;;;44.03;;
48627;SDS011;34424;52.234;6.500;2022-12-10T05:08:19;126.00;;;45.33;;
48627;SDS011;34424;52.234;6.500;2022-12-10T05:13:22;140.20;;;42.75;;
48627;SDS011;34424;52.234;6.500;2022-12-10T05:18:26;118.33;;;43.83;;
48627;SDS011;34424;52.234;6.500;2022-12-10T05:23:28;134.18;;;49.63;;
48627;SDS011;34424;52.234;6.500;2022-12-10T05:28:32;140.23;;;47.70;;
48627;SDS011;34424;52.234;6.500;2022-12-10T05:38:40;137.57;;;48.17;;
48627;SDS011;34424;52.234;6.500;2022-12-10T05:43:43;138.93;;;47.08;;
48627;SDS011;34424;52.234;6.500;2022-12-10T05:48:46;139.07;;;47.57;;
48627;SDS011;34424;52.234;6.500;2022-12-10T05:53:50;151.98;;;51.50;;
48627;SDS011;34424;52.234;6.500;2022-12-10T05:58:54;162.55;;;54.05;;
48627;SDS011;34424;52.234;6.500;2022-12-10T06:03:57;144.27;;;47.55;;
48627;SDS011;34424;52.234;6.500;2022-12-10T06:09:01;154.48;;;50.13;;
48627;SDS011;34424;52.234;6.500;2022-12-10T06:14:04;150.80;;;53.35;;
48627;SDS011;34424;52.234;6.500;2022-12-10T06:19:06;155.00;;;52.92;;
48627;SDS011;34424;52.234;6.500;2022-12-10T06:24:11;162.25;;;55.25;;
48627;SDS011;34424;52.234;6.500;2022-12-10T06:29:14;147.48;;;52.70;;
48627;SDS011;34424;52.234;6.500;2022-12-10T06:34:16;167.13;;;52.67;;
48627;SDS011;34424;52.234;6.500;2022-12-10T06:39:21;148.85;;;54.67;;
48627;SDS011;34424;52.234;6.500;2022-12-10T06:44:23;149.60;;;51.10;;
48627;SDS011;34424;52.234;6.500;2022-12-10T06:49:26;147.52;;;51.97;;
48627;SDS011;34424;52.234;6.500;2022-12-10T06:54:30;153.07;;;49.60;;
48627;SDS011;34424;52.234;6.500;2022-12-10T06:59:32;179.32;;;54.85;;
48627;SDS011;34424;52.234;6.500;2022-12-10T07:04:35;153.57;;;49.80;;
48627;SDS011;34424;52.234;6.500;2022-12-10T07:09:39;167.90;;;49.87;;
48627;SDS011;34424;52.234;6.500;2022-12-10T07:14:42;172.38;;;57.30;;
48627;SDS011;34424;52.234;6.500;2022-12-10T07:19:45;160.07;;;50.00;;
48627;SDS011;34424;52.234;6.500;2022-12-10T07:24:49;159.57;;;52.25;;
48627;SDS011;34424;52.234;6.500;2022-12-10T07:29:53;153.82;;;53.05;;
48627;SDS011;34424;52.234;6.500;2022-12-10T07:34:56;150.70;;;50.25;;
48627;SDS011;34424;52.234;6.500;2022-12-10T07:40:00;135.80;;;46.23;;
48627;SDS011;34424;52.234;6.500;2022-12-10T07:45:03;153.68;;;50.92;;
48627;SDS011;34424;52.234;6.500;2022-12-10T07:50:06;159.23;;;50.37;;
48627;SDS011;34424;52.234;6.500;2022-12-10T08:00:13;141.07;;;50.13;;
48627;SDS011;34424;52.234;6.500;2022-12-10T08:05:16;164.93;;;55.42;;
48627;SDS011;34424;52.234;6.500;2022-12-10T08:10:19;144.20;;;51.87;;
48627;SDS011;34424;52.234;6.500;2022-12-10T08:15:23;169.27;;;55.88;;
48627;SDS011;34424;52.234;6.500;2022-12-10T08:20:26;195.57;;;63.15;;
48627;SDS011;34424;52.234;6.500;2022-12-10T08:25:28;171.95;;;60.38;;
48627;SDS011;34424;52.234;6.500;2022-12-10T08:30:39;197.45;;;63.38;;
48627;SDS011;34424;52.234;6.500;2022-12-10T08:35:42;177.88;;;65.10;;
48627;SDS011;34424;52.234;6.500;2022-12-10T08:40:44;182.65;;;57.25;;
48627;SDS011;34424;52.234;6.500;2022-12-10T08:45:48;169.43;;;60.77;;
48627;SDS011;34424;52.234;6.500;2022-12-10T08:50:51;160.15;;;59.65;;
48627;SDS011;34424;52.234;6.500;2022-12-10T08:55:55;151.40;;;55.57;;
48627;SDS011;34424;52.234;6.500;2022-12-10T09:00:59;147.85;;;55.53;;
48627;SDS011;34424;52.234;6.500;2022-12-10T09:06:03;145.30;;;56.45;;
48627;SDS011;34424;52.234;6.500;2022-12-10T09:11:06;153.82;;;53.22;;
48627;SDS011;34424;52.234;6.500;2022-12-10T09:16:11;144.50;;;52.72;;
48627;SDS011;34424;52.234;6.500;2022-12-10T09:21:14;148.80;;;50.97;;
48627;SDS011;34424;52.234;6.500;2022-12-10T09:26:17;150.90;;;51.22;;
48627;SDS011;34424;52.234;6.500;2022-12-10T09:31:22;158.77;;;54.25;;
48627;SDS011;34424;52.234;6.500;2022-12-10T09:36:24;164.65;;;57.97;;
48627;SDS011;34424;52.234;6.500;2022-12-10T09:41:40;166.00;;;55.20;;
48627;SDS011;34424;52.234;6.500;2022-12-10T09:46:48;160.82;;;54.58;;
48627;SDS011;34424;52.234;6.500;2022-12-10T09:51:53;166.52;;;62.20;;
48627;SDS011;34424;52.234;6.500;2022-12-10T09:56:58;167.82;;;59.63;;
48627;SDS011;34424;52.234;6.500;2022-12-10T10:07:05;169.80;;;63.65;;
48627;SDS011;34424;52.234;6.500;2022-12-10T10:12:10;171.30;;;58.90;;
48627;SDS011;34424;52.234;6.500;2022-12-10T10:17:16;160.02;;;58.85;;
48627;SDS011;34424;52.234;6.500;2022-12-10T10:22:23;158.18;;;55.78;;
48627;SDS011;34424;52.234;6.500;2022-12-10T10:27:28;134.38;;;51.28;;
48627;SDS011;34424;52.234;6.500;2022-12-10T10:32:44;135.40;;;50.67;;
48627;SDS011;34424;52.234;6.500;2022-12-10T10:37:52;121.45;;;48.40;;
48627;SDS011;34424;52.234;6.500;2022-12-10T10:42:58;126.95;;;48.60;;
48627;SDS011;34424;52.234;6.500;2022-12-10T10:48:05;106.32;;;47.30;;
48627;SDS011;34424;52.234;6.500;2022-12-10T10:53:25;130.40;;;47.45;;
48627;SDS011;34424;52.234;6.500;2022-12-10T10:58:29;138.80;;;48.88;;
48627;SDS011;34424;52.234;6.500;2022-12-10T11:03:33;118.97;;;44.75;;
48627;SDS011;34424;52.234;6.500;2022-12-10T11:08:38;131.88;;;48.92;;
48627;SDS011;34424;52.234;6.500;2022-12-10T11:13:43;143.93;;;51.33;;
48627;SDS011;34424;52.234;6.500;2022-12-10T11:18:54;136.82;;;49.88;;
48627;SDS011;34424;52.234;6.500;2022-12-10T11:23:59;129.90;;;48.92;;
48627;SDS011;34424;52.234;6.500;2022-12-10T11:29:05;151.27;;;54.08;;
48627;SDS011;34424;52.234;6.500;2022-12-10T11:34:14;154.13;;;54.67;;
48627;SDS011;34424;52.234;6.500;2022-12-10T11:39:23;153.70;;;53.78;;
48627;SDS011;34424;52.234;6.500;2022-12-10T11:44:29;156.40;;;52.90;;
48627;SDS011;34424;52.234;6.500;2022-12-10T11:49:35;155.88;;;55.60;;
48627;SDS011;34424;52.234;6.500;2022-12-10T11:54:46;151.85;;;52.63;;
48627;SDS011;34424;52.234;6.500;2022-12-10T11:59:51;155.60;;;56.75;;
48627;SDS011;34424;52.234;6.500;2022-12-10T12:05:14;169.35;;;58.92;;
48627;SDS011;34424;52.234;6.500;2022-12-10T12:15:57;166.85;;;56.40;;
48627;SDS011;34424;52.234;6.500;2022-12-10T12:21:01;135.85;;;50.38;;
48627;SDS011;34424;52.234;6.500;2022-12-10T12:26:05;132.50;;;48.42;;
48627;SDS011;34424;52.234;6.500;2022-12-10T12:31:12;138.63;;;46.67;;
48627;SDS011;34424;52.234;6.500;2022-12-10T12:36:17;134.63;;;50.90;;
48627;SDS011;34424;52.234;6.500;2022-12-10T12:41:24;129.55;;;49.22;;
48627;SDS011;34424;52.234;6.500;2022-12-10T12:46:32;125.93;;;45.97;;
48627;SDS011;34424;52.234;6.500;2022-12-10T12:51:37;124.82;;;45.08;;
48627;SDS011;34424;52.234;6.500;2022-12-10T12:56:48;125.47;;;45.88;;
48627;SDS011;34424;52.234;6.500;2022-12-10T13:01:57;125.07;;;46.22;;
48627;SDS011;34424;52.234;6.500;2022-12-10T13:12:28;125.53;;;48.03;;
48627;SDS011;34424;52.234;6.500;2022-12-10T13:17:33;125.85;;;47.30;;
48627;SDS011;34424;52.234;6.500;2022-12-10T13:22:40;128.80;;;46.95;;
48627;SDS011;34424;52.234;6.500;2022-12-10T13:27:54;130.57;;;48.50;;
48627;SDS011;34424;52.234;6.500;2022-12-10T13:33:13;128.50;;;44.88;;
48627;SDS011;34424;52.234;6.500;2022-12-10T13:38:20;133.48;;;47.33;;
48627;SDS011;34424;52.234;6.500;2022-12-10T13:43:25;123.00;;;46.90;;
48627;SDS011;34424;52.234;6.500;2022-12-10T13:48:47;122.70;;;46.05;;
48627;SDS011;34424;52.234;6.500;2022-12-10T13:53:54;127.40;;;46.83;;
48627;SDS011;34424;52.234;6.500;2022-12-10T13:59:05;129.75;;;47.35;;
48627;SDS011;34424;52.234;6.500;2022-12-10T14:04:20;128.27;;;45.92;;
48627;SDS011;34424;52.234;6.500;2022-12-10T14:14:31;129.07;;;41.90;;
48627;SDS011;34424;52.234;6.500;2022-12-10T14:19:38;133.90;;;44.15;;
48627;SDS011;34424;52.234;6.500;2022-12-10T14:24:40;134.75;;;46.60;;
48627;SDS011;34424;52.234;6.500;2022-12-10T14:34:51;155.50;;;43.60;;
48627;SDS011;34424;52.234;6.500;2022-12-10T14:39:55;128.77;;;42.65;;
48627;SDS011;34424;52.234;6.500;2022-12-10T14:44:58;148.00;;;46.20;;
48627;SDS011;34424;52.234;6.500;2022-12-10T14:50:03;155.15;;;46.33;;
48627;SDS011;34424;52.234;6.500;2022-12-10T14:55:06;167.07;;;50.15;;
48627;SDS011;34424;52.234;6.500;2022-12-10T15:00:14;159.32;;;50.83;;
48627;SDS011;34424;52.234;6.500;2022-12-10T15:05:20;126.88;;;43.72;;
48627;SDS011;34424;52.234;6.500;2022-12-10T15:10:23;159.48;;;52.00;;
48627;SDS011;34424;52.234;6.500;2022-12-10T15:15:28;216.43;;;54.10;;
48627;SDS011;34424;52.234;6.500;2022-12-10T15:20:38;169.95;;;49.65;;
48627;SDS011;34424;52.234;6.500;2022-12-10T15:25:42;185.23;;;55.90;;
48627;SDS011;34424;52.234;6.500;2022-12-10T15:30:46;171.15;;;49.25;;
48627;SDS011;34424;52.234;6.500;2022-12-10T15:35:54;151.10;;;53.80;;
48627;SDS011;34424;52.234;6.500;2022-12-10T15:41:00;151.25;;;47.05;;
48627;SDS011;34424;52.234;6.500;2022-12-10T15:46:22;136.30;;;48.47;;
48627;SDS011;34424;52.234;6.500;2022-12-10T15:51:26;131.50;;;42.35;;
48627;SDS011;34424;52.234;6.500;2022-12-10T15:56:28;134.65;;;46.55;;
48627;SDS011;34424;52.234;6.500;2022-12-10T16:01:31;145.73;;;47.25;;
48627;SDS011;34424;52.234;6.500;2022-12-10T16:06:35;190.00;;;49.95;;
48627;SDS011;34424;52.234;6.500;2022-12-10T16:11:37;177.88;;;49.08;;
48627;SDS011;34424;52.234;6.500;2022-12-10T16:16:43;157.55;;;46.85;;
48627;SDS011;34424;52.234;6.500;2022-12-10T16:21:47;195.93;;;56.17;;
48627;SDS011;34424;52.234;6.500;2022-12-10T16:26:50;191.50;;;56.00;;
48627;SDS011;34424;52.234;6.500;2022-12-10T16:31:52;236.40;;;57.08;;
48627;SDS011;34424;52.234;6.500;2022-12-10T16:36:56;163.25;;;53.55;;
48627;SDS011;34424;52.234;6.500;2022-12-10T16:41:58;159.23;;;52.80;;
48627;SDS011;34424;52.234;6.500;2022-12-10T16:47:01;198.38;;;57.00;;
48627;SDS011;34424;52.234;6.500;2022-12-10T16:52:05;198.73;;;54.15;;
48627;SDS011;34424;52.234;6.500;2022-12-10T16:57:09;184.73;;;57.75;;
48627;SDS011;34424;52.234;6.500;2022-12-10T17:02:13;171.25;;;51.90;;
48627;SDS011;34424;52.234;6.500;2022-12-10T17:07:17;171.48;;;55.63;;
48627;SDS011;34424;52.234;6.500;2022-12-10T17:12:21;191.38;;;58.72;;
48627;SDS011;34424;52.234;6.500;2022-12-10T17:17:24;189.68;;;54.97;;
48627;SDS011;34424;52.234;6.500;2022-12-10T17:22:28;186.07;;;53.60;;
48627;SDS011;34424;52.234;6.500;2022-12-10T17:27:31;141.93;;;46.70;;
48627;SDS011;34424;52.234;6.500;2022-12-10T17:32:39;161.95;;;52.03;;
48627;SDS011;34424;52.234;6.500;2022-12-10T17:37:43;147.25;;;45.95;;
48627;SDS011;34424;52.234;6.500;2022-12-10T17:42:45;129.80;;;42.85;;
48627;SDS011;34424;52.234;6.500;2022-12-10T17:47:48;132.68;;;42.45;;
48627;SDS011;34424;52.234;6.500;2022-12-10T17:52:52;128.98;;;42.35;;
48627;SDS011;34424;52.234;6.500;2022-12-10T17:57:54;147.00;;;45.28;;
48627;SDS011;34424;52.234;6.500;2022-12-10T18:02:59;138.90;;;43.83;;
48627;SDS011;34424;52.234;6.500;2022-12-10T18:08:03;150.80;;;47.28;;
48627;SDS011;34424;52.234;6.500;2022-12-10T18:13:05;191.32;;;49.38;;
48627;SDS011;34424;52.234;6.500;2022-12-10T18:18:09;195.02;;;50.00;;
48627;SDS011;34424;52.234;6.500;2022-12-10T18:23:13;177.10;;;51.22;;
48627;SDS011;34424;52.234;6.500;2022-12-10T18:33:41;192.88;;;51.95;;
48627;SDS011;34424;52.234;6.500;2022-12-10T18:38:46;163.93;;;50.03;;
48627;SDS011;34424;52.234;6.500;2022-12-10T18:43:48;147.30;;;43.63;;
48627;SDS011;34424;52.234;6.500;2022-12-10T18:48:51;113.97;;;40.97;;
48627;SDS011;34424;52.234;6.500;2022-12-10T18:53:56;118.00;;;37.63;;
48627;SDS011;34424;52.234;6.500;2022-12-10T18:58:59;103.43;;;37.85;;
48627;SDS011;34424;52.234;6.500;2022-12-10T19:04:02;109.03;;;36.27;;
48627;SDS011;34424;52.234;6.500;2022-12-10T19:09:09;117.57;;;36.80;;
48627;SDS011;34424;52.234;6.500;2022-12-10T19:14:20;111.00;;;34.85;;
48627;SDS011;34424;52.234;6.500;2022-12-10T19:19:24;94.07;;;35.85;;
48627;SDS011;34424;52.234;6.500;2022-12-10T19:24:27;98.80;;;32.92;;
48627;SDS011;34424;52.234;6.500;2022-12-10T19:29:30;109.43;;;37.00;;
48627;SDS011;34424;52.234;6.500;2022-12-10T19:34:33;102.63;;;36.40;;
48627;SDS011;34424;52.234;6.500;2022-12-10T19:39:38;119.93;;;34.80;;
48627;SDS011;34424;52.234;6.500;2022-12-10T19:44:40;113.00;;;39.72;;
48627;SDS011;34424;52.234;6.500;2022-12-10T19:49:43;118.00;;;38.83;;
48627;SDS011;34424;52.234;6.500;2022-12-10T19:54:46;126.55;;;41.40;;
48627;SDS011;34424;52.234;6.500;2022-12-10T19:59:49;134.55;;;38.47;;
48627;SDS011;34424;52.234;6.500;2022-12-10T20:04:51;116.60;;;38.28;;
48627;SDS011;34424;52.234;6.500;2022-12-10T20:09:55;122.72;;;41.92;;
48627;SDS011;34424;52.234;6.500;2022-12-10T20:14:58;109.07;;;37.30;;
48627;SDS011;34424;52.234;6.500;2022-12-10T20:20:00;96.80;;;35.10;;
48627;SDS011;34424;52.234;6.500;2022-12-10T20:25:05;101.78;;;36.58;;
48627;SDS011;34424;52.234;6.500;2022-12-10T20:30:10;142.65;;;44.30;;
48627;SDS011;34424;52.234;6.500;2022-12-10T20:35:16;136.65;;;40.92;;
48627;SDS011;34424;52.234;6.500;2022-12-10T20:40:21;120.82;;;38.70;;
48627;SDS011;34424;52.234;6.500;2022-12-10T20:45:33;125.10;;;39.63;;
48627;SDS011;34424;52.234;6.500;2022-12-10T20:50:36;116.40;;;43.53;;
48627;SDS011;34424;52.234;6.500;2022-12-10T20:55:41;142.25;;;42.80;;
48627;SDS011;34424;52.234;6.500;2022-12-10T21:00:45;118.13;;;39.72;;
48627;SDS011;34424;52.234;6.500;2022-12-10T21:05:48;112.90;;;37.60;;
48627;SDS011;34424;52.234;6.500;2022-12-10T21:10:52;122.18;;;38.47;;
48627;SDS011;34424;52.234;6.500;2022-12-10T21:15:58;115.15;;;40.50;;
48627;SDS011;34424;52.234;6.500;2022-12-10T21:21:01;125.43;;;39.35;;
48627;SDS011;34424;52.234;6.500;2022-12-10T21:26:05;116.60;;;38.53;;
48627;SDS011;34424;52.234;6.500;2022-12-10T21:31:09;132.57;;;43.45;;
48627;SDS011;34424;52.234;6.500;2022-12-10T21:36:16;114.90;;;38.60;;
48627;SDS011;34424;52.234;6.500;2022-12-10T21:41:21;102.30;;;35.70;;
48627;SDS011;34424;52.234;6.500;2022-12-10T21:46:42;122.60;;;40.00;;
48627;SDS011;34424;52.234;6.500;2022-12-10T21:51:44;107.93;;;37.00;;
48627;SDS011;34424;52.234;6.500;2022-12-10T21:56:48;124.70;;;38.90;;
48627;SDS011;34424;52.234;6.500;2022-12-10T22:01:53;122.35;;;41.50;;
48627;SDS011;34424;52.234;6.500;2022-12-10T22:06:57;132.73;;;44.75;;
48627;SDS011;34424;52.234;6.500;2022-12-10T22:12:00;140.85;;;47.20;;
48627;SDS011;34424;52.234;6.500;2022-12-10T22:17:03;117.20;;;42.03;;
48627;SDS011;34424;52.234;6.500;2022-12-10T22:22:05;106.57;;;36.40;;
48627;SDS011;34424;52.234;6.500;2022-12-10T22:27:09;111.03;;;36.97;;
48627;SDS011;34424;52.234;6.500;2022-12-10T22:32:12;120.25;;;41.35;;
48627;SDS011;34424;52.234;6.500;2022-12-10T22:37:14;101.65;;;35.95;;
48627;SDS011;34424;52.234;6.500;2022-12-10T22:42:18;95.10;;;34.67;;
48627;SDS011;34424;52.234;6.500;2022-12-10T22:47:20;85.10;;;32.53;;
48627;SDS011;34424;52.234;6.500;2022-12-10T22:52:23;92.45;;;33.45;;
48627;SDS011;34424;52.234;6.500;2022-12-10T22:57:27;101.50;;;34.47;;
48627;SDS011;34424;52.234;6.500;2022-12-10T23:02:30;109.72;;;36.88;;
48627;SDS011;34424;52.234;6.500;2022-12-10T23:07:32;94.47;;;32.87;;
48627;SDS011;34424;52.234;6.500;2022-12-10T23:12:36;107.82;;;35.35;;
48627;SDS011;34424;52.234;6.500;2022-12-10T23:17:56;108.35;;;37.13;;
48627;SDS011;34424;52.234;6.500;2022-12-10T23:22:59;87.43;;;33.80;;
48627;SDS011;34424;52.234;6.500;2022-12-10T23:28:03;89.73;;;30.57;;
48627;SDS011;34424;52.234;6.500;2022-12-10T23:33:08;87.07;;;32.33;;
48627;SDS011;34424;52.234;6.500;2022-12-10T23:38:14;96.75;;;35.42;;
48627;SDS011;34424;52.234;6.500;2022-12-10T23:43:17;101.30;;;37.05;;
48627;SDS011;34424;52.234;6.500;2022-12-10T23:48:20;110.05;;;37.25;;
48627;SDS011;34424;52.234;6.500;2022-12-10T23:53:22;105.97;;;38.67;;
48627;SDS011;34424;52.234;6.500;2022-12-10T23:58:26;103.57;;;34.03;;
